sensor_id;sensor_type;location;lat;lon;timestamp;P1;durP1;ratioP1;P2;durP2;ratioP2
3704;SDS011;1868;48.918;9.438;2022-12-18T00:00:07;67.45;;;30.02;;
3704;SDS011;1868;48.918;9.438;2022-12-18T00:02:39;62.50;;;29.08;;
3704;SDS011;1868;48.918;9.438;2022-12-18T00:05:08;63.50;;;29.35;;
3704;SDS011;1868;48.918;9.438;2022-12-18T00:07:36;55.20;;;29.35;;
3704;SDS011;1868;48.918;9.438;2022-12-18T00:10:05;64.72;;;32.63;;
3704;SDS011;1868;48.918;9.438;2022-12-18T00:12:34;65.63;;;31.75;;
3704;SDS011;1868;48.918;9.438;2022-12-18T00:15:05;64.53;;;29.40;;
3704;SDS011;1868;48.918;9.438;2022-12-18T00:17:34;57.83;;;29.48;;
3704;SDS011;1868;48.918;9.438;2022-12-18T00:20:03;64.75;;;29.98;;
3704;SDS011;1868;48.918;9.438;2022-12-18T00:22:32;70.78;;;30.63;;
3704;SDS011;1868;48.918;9.438;2022-12-18T00:25:00;65.40;;;30.95;;
3704;SDS011;1868;48.918;9.438;2022-12-18T00:27:31;69.18;;;29.90;;
3704;SDS011;1868;48.918;9.438;2022-12-18T00:29:59;58.92;;;28.15;;
3704;SDS011;1868;48.918;9.438;2022-12-18T00:32:29;53.63;;;26.33;;
3704;SDS011;1868;48.918;9.438;2022-12-18T00:34:57;61.30;;;27.77;;
3704;SDS011;1868;48.918;9.438;2022-12-18T00:37:25;64.00;;;29.63;;
3704;SDS011;1868;48.918;9.438;2022-12-18T00:39:54;60.20;;;29.30;;
3704;SDS011;1868;48.918;9.438;2022-12-18T00:42:22;56.15;;;28.00;;
3704;SDS011;1868;48.918;9.438;2022-12-18T00:45:08;57.55;;;26.90;;
3704;SDS011;1868;48.918;9.438;2022-12-18T00:47:40;52.40;;;24.50;;
3704;SDS011;1868;48.918;9.438;2022-12-18T00:50:09;46.30;;;24.15;;
3704;SDS011;1868;48.918;9.438;2022-12-18T00:52:40;55.88;;;26.70;;
3704;SDS011;1868;48.918;9.438;2022-12-18T00:55:09;52.40;;;26.23;;
3704;SDS011;1868;48.918;9.438;2022-12-18T00:57:37;50.08;;;25.17;;
3704;SDS011;1868;48.918;9.438;2022-12-18T01:00:06;63.10;;;29.38;;
3704;SDS011;1868;48.918;9.438;2022-12-18T01:02:37;44.85;;;23.85;;
3704;SDS011;1868;48.918;9.438;2022-12-18T01:05:08;52.92;;;23.27;;
3704;SDS011;1868;48.918;9.438;2022-12-18T01:07:38;57.10;;;26.33;;
3704;SDS011;1868;48.918;9.438;2022-12-18T01:10:07;52.72;;;25.23;;
3704;SDS011;1868;48.918;9.438;2022-12-18T01:12:37;58.42;;;25.92;;
3704;SDS011;1868;48.918;9.438;2022-12-18T01:15:07;56.17;;;27.77;;
3704;SDS011;1868;48.918;9.438;2022-12-18T01:17:36;54.35;;;24.60;;
3704;SDS011;1868;48.918;9.438;2022-12-18T01:20:07;57.60;;;27.20;;
3704;SDS011;1868;48.918;9.438;2022-12-18T01:22:37;52.60;;;24.75;;
3704;SDS011;1868;48.918;9.438;2022-12-18T01:25:06;56.33;;;26.00;;
3704;SDS011;1868;48.918;9.438;2022-12-18T01:27:35;50.53;;;23.80;;
3704;SDS011;1868;48.918;9.438;2022-12-18T01:30:04;57.42;;;26.15;;
3704;SDS011;1868;48.918;9.438;2022-12-18T01:32:34;56.47;;;26.92;;
3704;SDS011;1868;48.918;9.438;2022-12-18T01:35:02;53.45;;;25.38;;
3704;SDS011;1868;48.918;9.438;2022-12-18T01:37:33;60.78;;;27.15;;
3704;SDS011;1868;48.918;9.438;2022-12-18T01:40:01;48.53;;;23.50;;
3704;SDS011;1868;48.918;9.438;2022-12-18T01:42:30;46.17;;;22.85;;
3704;SDS011;1868;48.918;9.438;2022-12-18T01:45:05;36.33;;;20.55;;
3704;SDS011;1868;48.918;9.438;2022-12-18T01:47:50;38.13;;;19.80;;
3704;SDS011;1868;48.918;9.438;2022-12-18T01:50:22;44.90;;;21.08;;
3704;SDS011;1868;48.918;9.438;2022-12-18T01:52:56;49.47;;;21.88;;
3704;SDS011;1868;48.918;9.438;2022-12-18T01:55:29;52.65;;;23.10;;
3704;SDS011;1868;48.918;9.438;2022-12-18T01:58:00;40.65;;;20.75;;
3704;SDS011;1868;48.918;9.438;2022-12-18T02:00:29;43.85;;;20.92;;
3704;SDS011;1868;48.918;9.438;2022-12-18T02:02:57;39.50;;;20.33;;
3704;SDS011;1868;48.918;9.438;2022-12-18T02:05:29;46.72;;;21.95;;
3704;SDS011;1868;48.918;9.438;2022-12-18T02:08:22;46.17;;;22.20;;
3704;SDS011;1868;48.918;9.438;2022-12-18T02:10:57;41.58;;;20.67;;
3704;SDS011;1868;48.918;9.438;2022-12-18T02:13:36;42.92;;;20.98;;
3704;SDS011;1868;48.918;9.438;2022-12-18T02:16:13;41.17;;;19.77;;
3704;SDS011;1868;48.918;9.438;2022-12-18T02:18:50;40.50;;;21.40;;
3704;SDS011;1868;48.918;9.438;2022-12-18T02:21:26;45.75;;;23.20;;
3704;SDS011;1868;48.918;9.438;2022-12-18T02:24:10;43.97;;;20.92;;
3704;SDS011;1868;48.918;9.438;2022-12-18T02:26:49;45.70;;;21.95;;
3704;SDS011;1868;48.918;9.438;2022-12-18T02:29:25;37.50;;;20.40;;
3704;SDS011;1868;48.918;9.438;2022-12-18T02:32:00;44.42;;;22.23;;
3704;SDS011;1868;48.918;9.438;2022-12-18T02:34:33;42.20;;;21.58;;
3704;SDS011;1868;48.918;9.438;2022-12-18T02:37:11;40.42;;;21.42;;
3704;SDS011;1868;48.918;9.438;2022-12-18T02:39:44;46.50;;;21.25;;
3704;SDS011;1868;48.918;9.438;2022-12-18T02:42:17;41.70;;;21.67;;
3704;SDS011;1868;48.918;9.438;2022-12-18T02:44:47;47.38;;;22.00;;
3704;SDS011;1868;48.918;9.438;2022-12-18T02:47:23;38.15;;;20.55;;
3704;SDS011;1868;48.918;9.438;2022-12-18T02:49:57;46.25;;;21.38;;
3704;SDS011;1868;48.918;9.438;2022-12-18T02:52:38;37.15;;;20.10;;
3704;SDS011;1868;48.918;9.438;2022-12-18T02:55:20;43.63;;;22.00;;
3704;SDS011;1868;48.918;9.438;2022-12-18T02:58:09;43.45;;;22.50;;
3704;SDS011;1868;48.918;9.438;2022-12-18T03:00:48;44.30;;;21.92;;
3704;SDS011;1868;48.918;9.438;2022-12-18T03:03:28;54.47;;;23.15;;
3704;SDS011;1868;48.918;9.438;2022-12-18T03:06:04;51.53;;;22.42;;
3704;SDS011;1868;48.918;9.438;2022-12-18T03:08:37;47.67;;;21.73;;
3704;SDS011;1868;48.918;9.438;2022-12-18T03:11:10;45.67;;;22.73;;
3704;SDS011;1868;48.918;9.438;2022-12-18T03:13:43;54.08;;;23.83;;
3704;SDS011;1868;48.918;9.438;2022-12-18T03:16:17;51.28;;;23.08;;
3704;SDS011;1868;48.918;9.438;2022-12-18T03:18:52;47.60;;;22.50;;
3704;SDS011;1868;48.918;9.438;2022-12-18T03:21:26;50.17;;;24.08;;
3704;SDS011;1868;48.918;9.438;2022-12-18T03:23:57;42.55;;;21.00;;
3704;SDS011;1868;48.918;9.438;2022-12-18T03:26:27;47.88;;;23.33;;
3704;SDS011;1868;48.918;9.438;2022-12-18T03:29:03;47.88;;;21.00;;
3704;SDS011;1868;48.918;9.438;2022-12-18T03:31:36;41.28;;;21.00;;
3704;SDS011;1868;48.918;9.438;2022-12-18T03:34:09;47.92;;;22.50;;
3704;SDS011;1868;48.918;9.438;2022-12-18T03:36:44;48.92;;;22.65;;
3704;SDS011;1868;48.918;9.438;2022-12-18T03:39:13;44.88;;;22.08;;
3704;SDS011;1868;48.918;9.438;2022-12-18T03:41:50;44.15;;;23.13;;
3704;SDS011;1868;48.918;9.438;2022-12-18T03:44:42;50.53;;;22.67;;
3704;SDS011;1868;48.918;9.438;2022-12-18T03:47:23;48.28;;;21.40;;
3704;SDS011;1868;48.918;9.438;2022-12-18T03:50:03;47.33;;;22.15;;
3704;SDS011;1868;48.918;9.438;2022-12-18T03:52:41;45.10;;;22.52;;
3704;SDS011;1868;48.918;9.438;2022-12-18T03:55:17;45.60;;;21.90;;
3704;SDS011;1868;48.918;9.438;2022-12-18T03:57:53;45.50;;;21.30;;
3704;SDS011;1868;48.918;9.438;2022-12-18T04:00:26;47.58;;;20.83;;
3704;SDS011;1868;48.918;9.438;2022-12-18T04:03:03;45.53;;;22.92;;
3704;SDS011;1868;48.918;9.438;2022-12-18T04:05:40;44.78;;;22.45;;
3704;SDS011;1868;48.918;9.438;2022-12-18T04:08:11;44.53;;;21.13;;
3704;SDS011;1868;48.918;9.438;2022-12-18T04:10:46;36.10;;;18.35;;
3704;SDS011;1868;48.918;9.438;2022-12-18T04:13:21;47.67;;;21.45;;
3704;SDS011;1868;48.918;9.438;2022-12-18T04:15:51;43.97;;;21.33;;
3704;SDS011;1868;48.918;9.438;2022-12-18T04:18:22;45.90;;;21.10;;
3704;SDS011;1868;48.918;9.438;2022-12-18T04:20:50;51.78;;;21.10;;
3704;SDS011;1868;48.918;9.438;2022-12-18T04:23:19;40.35;;;19.58;;
3704;SDS011;1868;48.918;9.438;2022-12-18T04:25:48;41.30;;;20.15;;
3704;SDS011;1868;48.918;9.438;2022-12-18T04:28:26;45.15;;;19.77;;
3704;SDS011;1868;48.918;9.438;2022-12-18T04:30:56;47.75;;;21.02;;
3704;SDS011;1868;48.918;9.438;2022-12-18T04:33:24;42.67;;;20.83;;
3704;SDS011;1868;48.918;9.438;2022-12-18T04:35:53;39.50;;;19.25;;
3704;SDS011;1868;48.918;9.438;2022-12-18T04:38:21;40.28;;;19.00;;
3704;SDS011;1868;48.918;9.438;2022-12-18T04:40:57;30.85;;;17.73;;
3704;SDS011;1868;48.918;9.438;2022-12-18T04:43:26;38.55;;;19.85;;
3704;SDS011;1868;48.918;9.438;2022-12-18T04:46:02;34.83;;;18.23;;
3704;SDS011;1868;48.918;9.438;2022-12-18T04:48:31;36.28;;;17.75;;
3704;SDS011;1868;48.918;9.438;2022-12-18T04:51:01;37.28;;;16.45;;
3704;SDS011;1868;48.918;9.438;2022-12-18T04:53:29;34.20;;;16.35;;
3704;SDS011;1868;48.918;9.438;2022-12-18T04:56:02;34.05;;;15.52;;
3704;SDS011;1868;48.918;9.438;2022-12-18T04:58:33;26.58;;;14.27;;
3704;SDS011;1868;48.918;9.438;2022-12-18T05:01:02;26.52;;;14.80;;
3704;SDS011;1868;48.918;9.438;2022-12-18T05:03:31;32.80;;;15.88;;
3704;SDS011;1868;48.918;9.438;2022-12-18T05:05:59;29.88;;;14.60;;
3704;SDS011;1868;48.918;9.438;2022-12-18T05:08:28;33.53;;;15.43;;
3704;SDS011;1868;48.918;9.438;2022-12-18T05:10:59;36.80;;;16.42;;
3704;SDS011;1868;48.918;9.438;2022-12-18T05:13:30;32.67;;;15.80;;
3704;SDS011;1868;48.918;9.438;2022-12-18T05:15:59;32.15;;;16.15;;
3704;SDS011;1868;48.918;9.438;2022-12-18T05:18:29;35.22;;;15.50;;
3704;SDS011;1868;48.918;9.438;2022-12-18T05:20:58;25.73;;;12.85;;
3704;SDS011;1868;48.918;9.438;2022-12-18T05:23:26;23.80;;;12.80;;
3704;SDS011;1868;48.918;9.438;2022-12-18T05:25:55;24.92;;;12.95;;
3704;SDS011;1868;48.918;9.438;2022-12-18T05:28:27;24.40;;;12.88;;
3704;SDS011;1868;48.918;9.438;2022-12-18T05:30:57;25.02;;;13.05;;
3704;SDS011;1868;48.918;9.438;2022-12-18T05:33:31;26.85;;;14.15;;
3704;SDS011;1868;48.918;9.438;2022-12-18T05:36:02;32.05;;;15.25;;
3704;SDS011;1868;48.918;9.438;2022-12-18T05:38:33;31.58;;;15.48;;
3704;SDS011;1868;48.918;9.438;2022-12-18T05:41:03;32.00;;;15.13;;
3704;SDS011;1868;48.918;9.438;2022-12-18T05:43:33;29.65;;;15.57;;
3704;SDS011;1868;48.918;9.438;2022-12-18T05:46:04;30.33;;;15.18;;
3704;SDS011;1868;48.918;9.438;2022-12-18T05:48:35;33.72;;;17.55;;
3704;SDS011;1868;48.918;9.438;2022-12-18T05:51:04;35.50;;;16.02;;
3704;SDS011;1868;48.918;9.438;2022-12-18T05:53:35;31.80;;;15.88;;
3704;SDS011;1868;48.918;9.438;2022-12-18T05:56:05;29.38;;;14.23;;
3704;SDS011;1868;48.918;9.438;2022-12-18T05:58:36;31.58;;;15.75;;
3704;SDS011;1868;48.918;9.438;2022-12-18T06:01:09;26.30;;;14.30;;
3704;SDS011;1868;48.918;9.438;2022-12-18T06:03:41;30.52;;;15.10;;
3704;SDS011;1868;48.918;9.438;2022-12-18T06:06:14;29.05;;;14.98;;
3704;SDS011;1868;48.918;9.438;2022-12-18T06:08:43;29.20;;;15.07;;
3704;SDS011;1868;48.918;9.438;2022-12-18T06:11:12;28.63;;;14.95;;
3704;SDS011;1868;48.918;9.438;2022-12-18T06:13:43;29.67;;;15.55;;
3704;SDS011;1868;48.918;9.438;2022-12-18T06:16:11;24.50;;;14.23;;
3704;SDS011;1868;48.918;9.438;2022-12-18T06:18:41;29.63;;;14.75;;
3704;SDS011;1868;48.918;9.438;2022-12-18T06:21:09;36.10;;;15.43;;
3704;SDS011;1868;48.918;9.438;2022-12-18T06:23:37;30.60;;;15.68;;
3704;SDS011;1868;48.918;9.438;2022-12-18T06:26:07;35.85;;;15.77;;
3704;SDS011;1868;48.918;9.438;2022-12-18T06:28:38;75.70;;;38.45;;
3704;SDS011;1868;48.918;9.438;2022-12-18T06:31:07;40.22;;;21.23;;
3704;SDS011;1868;48.918;9.438;2022-12-18T06:33:36;30.30;;;15.50;;
3704;SDS011;1868;48.918;9.438;2022-12-18T06:36:08;26.83;;;13.68;;
3704;SDS011;1868;48.918;9.438;2022-12-18T06:38:39;28.30;;;14.18;;
3704;SDS011;1868;48.918;9.438;2022-12-18T06:41:10;30.10;;;15.00;;
3704;SDS011;1868;48.918;9.438;2022-12-18T06:43:40;27.10;;;14.63;;
3704;SDS011;1868;48.918;9.438;2022-12-18T06:46:09;28.55;;;14.68;;
3704;SDS011;1868;48.918;9.438;2022-12-18T06:48:38;30.67;;;15.52;;
3704;SDS011;1868;48.918;9.438;2022-12-18T06:51:08;29.88;;;14.98;;
3704;SDS011;1868;48.918;9.438;2022-12-18T06:53:36;26.77;;;13.38;;
3704;SDS011;1868;48.918;9.438;2022-12-18T06:56:06;25.35;;;13.45;;
3704;SDS011;1868;48.918;9.438;2022-12-18T06:58:36;32.45;;;14.23;;
3704;SDS011;1868;48.918;9.438;2022-12-18T07:01:05;27.17;;;14.23;;
3704;SDS011;1868;48.918;9.438;2022-12-18T07:03:37;37.75;;;16.27;;
3704;SDS011;1868;48.918;9.438;2022-12-18T07:06:13;27.67;;;14.65;;
3704;SDS011;1868;48.918;9.438;2022-12-18T07:08:44;26.40;;;14.32;;
3704;SDS011;1868;48.918;9.438;2022-12-18T07:11:13;27.60;;;15.40;;
3704;SDS011;1868;48.918;9.438;2022-12-18T07:13:41;23.30;;;12.73;;
3704;SDS011;1868;48.918;9.438;2022-12-18T07:16:11;31.95;;;13.50;;
3704;SDS011;1868;48.918;9.438;2022-12-18T07:18:49;27.63;;;13.73;;
3704;SDS011;1868;48.918;9.438;2022-12-18T07:21:19;27.50;;;14.88;;
3704;SDS011;1868;48.918;9.438;2022-12-18T07:23:48;22.60;;;12.00;;
3704;SDS011;1868;48.918;9.438;2022-12-18T07:26:17;25.63;;;12.80;;
3704;SDS011;1868;48.918;9.438;2022-12-18T07:28:47;28.95;;;14.23;;
3704;SDS011;1868;48.918;9.438;2022-12-18T07:31:17;29.63;;;14.95;;
3704;SDS011;1868;48.918;9.438;2022-12-18T07:33:48;25.30;;;13.23;;
3704;SDS011;1868;48.918;9.438;2022-12-18T07:36:19;20.85;;;12.07;;
3704;SDS011;1868;48.918;9.438;2022-12-18T07:38:51;28.60;;;14.63;;
3704;SDS011;1868;48.918;9.438;2022-12-18T07:41:19;26.58;;;13.85;;
3704;SDS011;1868;48.918;9.438;2022-12-18T07:43:48;30.15;;;14.93;;
3704;SDS011;1868;48.918;9.438;2022-12-18T07:46:16;27.15;;;13.23;;
3704;SDS011;1868;48.918;9.438;2022-12-18T07:48:45;24.67;;;13.43;;
3704;SDS011;1868;48.918;9.438;2022-12-18T07:51:15;25.20;;;12.73;;
3704;SDS011;1868;48.918;9.438;2022-12-18T07:53:46;25.65;;;12.50;;
3704;SDS011;1868;48.918;9.438;2022-12-18T07:56:18;22.08;;;13.05;;
3704;SDS011;1868;48.918;9.438;2022-12-18T07:58:53;30.00;;;14.98;;
3704;SDS011;1868;48.918;9.438;2022-12-18T08:01:21;24.95;;;13.10;;
3704;SDS011;1868;48.918;9.438;2022-12-18T08:03:50;23.52;;;13.55;;
3704;SDS011;1868;48.918;9.438;2022-12-18T08:06:18;30.23;;;15.30;;
3704;SDS011;1868;48.918;9.438;2022-12-18T08:08:51;31.55;;;16.00;;
3704;SDS011;1868;48.918;9.438;2022-12-18T08:11:20;31.23;;;14.75;;
3704;SDS011;1868;48.918;9.438;2022-12-18T08:13:49;28.65;;;14.98;;
3704;SDS011;1868;48.918;9.438;2022-12-18T08:16:18;29.90;;;16.60;;
3704;SDS011;1868;48.918;9.438;2022-12-18T08:18:48;25.88;;;13.95;;
3704;SDS011;1868;48.918;9.438;2022-12-18T08:21:17;32.50;;;16.40;;
3704;SDS011;1868;48.918;9.438;2022-12-18T08:23:49;33.13;;;18.20;;
3704;SDS011;1868;48.918;9.438;2022-12-18T08:26:20;41.05;;;19.52;;
3704;SDS011;1868;48.918;9.438;2022-12-18T08:28:49;33.55;;;18.58;;
3704;SDS011;1868;48.918;9.438;2022-12-18T08:31:18;35.83;;;18.42;;
3704;SDS011;1868;48.918;9.438;2022-12-18T08:33:49;39.47;;;18.88;;
3704;SDS011;1868;48.918;9.438;2022-12-18T08:36:19;36.30;;;18.33;;
3704;SDS011;1868;48.918;9.438;2022-12-18T08:38:49;37.78;;;19.45;;
3704;SDS011;1868;48.918;9.438;2022-12-18T08:41:19;36.58;;;18.73;;
3704;SDS011;1868;48.918;9.438;2022-12-18T08:43:48;34.47;;;17.83;;
3704;SDS011;1868;48.918;9.438;2022-12-18T08:46:35;32.40;;;18.05;;
3704;SDS011;1868;48.918;9.438;2022-12-18T08:49:06;35.08;;;17.90;;
3704;SDS011;1868;48.918;9.438;2022-12-18T08:51:35;39.55;;;19.58;;
3704;SDS011;1868;48.918;9.438;2022-12-18T08:54:06;36.38;;;17.25;;
3704;SDS011;1868;48.918;9.438;2022-12-18T08:56:34;30.40;;;15.75;;
3704;SDS011;1868;48.918;9.438;2022-12-18T08:59:02;34.55;;;17.95;;
3704;SDS011;1868;48.918;9.438;2022-12-18T09:01:31;31.10;;;17.45;;
3704;SDS011;1868;48.918;9.438;2022-12-18T09:04:00;42.30;;;21.98;;
3704;SDS011;1868;48.918;9.438;2022-12-18T09:06:30;37.25;;;19.48;;
3704;SDS011;1868;48.918;9.438;2022-12-18T09:08:58;35.92;;;18.90;;
3704;SDS011;1868;48.918;9.438;2022-12-18T09:11:29;34.97;;;18.40;;
3704;SDS011;1868;48.918;9.438;2022-12-18T09:14:04;32.90;;;17.33;;
3704;SDS011;1868;48.918;9.438;2022-12-18T09:16:35;30.02;;;16.20;;
3704;SDS011;1868;48.918;9.438;2022-12-18T09:19:03;33.47;;;18.13;;
3704;SDS011;1868;48.918;9.438;2022-12-18T09:21:33;28.75;;;15.90;;
3704;SDS011;1868;48.918;9.438;2022-12-18T09:24:13;33.20;;;18.00;;
3704;SDS011;1868;48.918;9.438;2022-12-18T09:26:45;27.10;;;16.80;;
3704;SDS011;1868;48.918;9.438;2022-12-18T09:29:14;34.00;;;16.30;;
3704;SDS011;1868;48.918;9.438;2022-12-18T09:31:44;29.48;;;16.42;;
3704;SDS011;1868;48.918;9.438;2022-12-18T09:34:13;38.88;;;17.63;;
3704;SDS011;1868;48.918;9.438;2022-12-18T09:36:41;26.47;;;14.97;;
3704;SDS011;1868;48.918;9.438;2022-12-18T09:39:11;30.33;;;15.90;;
3704;SDS011;1868;48.918;9.438;2022-12-18T09:41:41;31.55;;;16.73;;
3704;SDS011;1868;48.918;9.438;2022-12-18T09:44:15;37.20;;;18.37;;
3704;SDS011;1868;48.918;9.438;2022-12-18T09:46:51;34.17;;;18.73;;
3704;SDS011;1868;48.918;9.438;2022-12-18T09:49:28;34.50;;;18.17;;
3704;SDS011;1868;48.918;9.438;2022-12-18T09:52:00;33.97;;;17.93;;
3704;SDS011;1868;48.918;9.438;2022-12-18T09:54:33;37.67;;;19.53;;
3704;SDS011;1868;48.918;9.438;2022-12-18T09:57:10;37.53;;;18.50;;
3704;SDS011;1868;48.918;9.438;2022-12-18T09:59:41;39.23;;;19.27;;
3704;SDS011;1868;48.918;9.438;2022-12-18T10:02:17;35.17;;;18.23;;
3704;SDS011;1868;48.918;9.438;2022-12-18T10:04:51;36.87;;;19.67;;
3704;SDS011;1868;48.918;9.438;2022-12-18T10:07:39;37.90;;;19.80;;
3704;SDS011;1868;48.918;9.438;2022-12-18T10:10:19;37.57;;;18.77;;
3704;SDS011;1868;48.918;9.438;2022-12-18T10:13:04;35.20;;;18.73;;
3704;SDS011;1868;48.918;9.438;2022-12-18T10:15:45;37.07;;;18.20;;
3704;SDS011;1868;48.918;9.438;2022-12-18T10:18:26;32.13;;;17.17;;
3704;SDS011;1868;48.918;9.438;2022-12-18T10:21:08;31.53;;;16.13;;
3704;SDS011;1868;48.918;9.438;2022-12-18T10:23:43;34.67;;;16.00;;
3704;SDS011;1868;48.918;9.438;2022-12-18T10:26:18;36.00;;;17.13;;
3704;SDS011;1868;48.918;9.438;2022-12-18T10:28:49;37.23;;;18.23;;
3704;SDS011;1868;48.918;9.438;2022-12-18T10:31:20;36.10;;;17.60;;
3704;SDS011;1868;48.918;9.438;2022-12-18T10:33:50;42.67;;;19.67;;
3704;SDS011;1868;48.918;9.438;2022-12-18T10:36:19;36.47;;;17.63;;
3704;SDS011;1868;48.918;9.438;2022-12-18T10:38:49;31.10;;;17.10;;
3704;SDS011;1868;48.918;9.438;2022-12-18T10:41:23;36.30;;;16.37;;
3704;SDS011;1868;48.918;9.438;2022-12-18T10:44:12;36.17;;;16.70;;
3704;SDS011;1868;48.918;9.438;2022-12-18T10:46:44;36.40;;;17.60;;
3704;SDS011;1868;48.918;9.438;2022-12-18T10:49:18;31.10;;;16.30;;
3704;SDS011;1868;48.918;9.438;2022-12-18T10:51:50;33.77;;;16.57;;
3704;SDS011;1868;48.918;9.438;2022-12-18T10:54:32;34.10;;;18.07;;
3704;SDS011;1868;48.918;9.438;2022-12-18T10:57:15;31.63;;;16.90;;
3704;SDS011;1868;48.918;9.438;2022-12-18T10:59:51;36.60;;;17.53;;
3704;SDS011;1868;48.918;9.438;2022-12-18T11:02:27;35.63;;;18.10;;
3704;SDS011;1868;48.918;9.438;2022-12-18T11:05:02;33.33;;;16.70;;
3704;SDS011;1868;48.918;9.438;2022-12-18T11:07:51;32.27;;;17.23;;
3704;SDS011;1868;48.918;9.438;2022-12-18T11:10:21;34.77;;;18.33;;
3704;SDS011;1868;48.918;9.438;2022-12-18T11:12:54;33.93;;;17.13;;
3704;SDS011;1868;48.918;9.438;2022-12-18T11:15:25;41.40;;;19.30;;
3704;SDS011;1868;48.918;9.438;2022-12-18T11:17:57;38.73;;;17.13;;
3704;SDS011;1868;48.918;9.438;2022-12-18T11:20:28;38.50;;;17.90;;
3704;SDS011;1868;48.918;9.438;2022-12-18T11:23:00;37.57;;;18.17;;
3704;SDS011;1868;48.918;9.438;2022-12-18T11:25:31;39.87;;;18.63;;
3704;SDS011;1868;48.918;9.438;2022-12-18T11:28:02;33.63;;;17.87;;
3704;SDS011;1868;48.918;9.438;2022-12-18T11:30:35;33.00;;;18.10;;
3704;SDS011;1868;48.918;9.438;2022-12-18T11:33:04;31.73;;;16.83;;
3704;SDS011;1868;48.918;9.438;2022-12-18T11:35:39;35.10;;;18.13;;
3704;SDS011;1868;48.918;9.438;2022-12-18T11:38:17;35.67;;;17.87;;
3704;SDS011;1868;48.918;9.438;2022-12-18T11:40:51;36.30;;;18.30;;
3704;SDS011;1868;48.918;9.438;2022-12-18T11:43:26;39.90;;;19.07;;
3704;SDS011;1868;48.918;9.438;2022-12-18T11:46:00;33.37;;;19.40;;
3704;SDS011;1868;48.918;9.438;2022-12-18T11:48:34;32.30;;;17.03;;
3704;SDS011;1868;48.918;9.438;2022-12-18T11:51:11;37.83;;;18.43;;
3704;SDS011;1868;48.918;9.438;2022-12-18T11:53:52;31.07;;;16.17;;
3704;SDS011;1868;48.918;9.438;2022-12-18T11:56:26;32.70;;;17.43;;
3704;SDS011;1868;48.918;9.438;2022-12-18T11:59:06;34.00;;;17.53;;
3704;SDS011;1868;48.918;9.438;2022-12-18T12:01:46;36.50;;;17.67;;
3704;SDS011;1868;48.918;9.438;2022-12-18T12:04:41;32.23;;;16.50;;
3704;SDS011;1868;48.918;9.438;2022-12-18T12:07:32;30.50;;;17.27;;
3704;SDS011;1868;48.918;9.438;2022-12-18T12:10:13;34.03;;;17.60;;
3704;SDS011;1868;48.918;9.438;2022-12-18T12:12:57;31.83;;;16.60;;
3704;SDS011;1868;48.918;9.438;2022-12-18T12:15:51;34.90;;;17.70;;
3704;SDS011;1868;48.918;9.438;2022-12-18T12:18:40;33.47;;;17.03;;
3704;SDS011;1868;48.918;9.438;2022-12-18T12:21:25;33.93;;;16.90;;
3704;SDS011;1868;48.918;9.438;2022-12-18T12:24:05;29.27;;;15.87;;
3704;SDS011;1868;48.918;9.438;2022-12-18T12:26:52;31.63;;;16.43;;
3704;SDS011;1868;48.918;9.438;2022-12-18T12:29:36;39.00;;;19.57;;
3704;SDS011;1868;48.918;9.438;2022-12-18T12:32:21;39.13;;;20.20;;
3704;SDS011;1868;48.918;9.438;2022-12-18T12:35:08;37.10;;;18.47;;
3704;SDS011;1868;48.918;9.438;2022-12-18T12:37:49;41.40;;;21.23;;
3704;SDS011;1868;48.918;9.438;2022-12-18T12:40:32;34.87;;;17.47;;
3704;SDS011;1868;48.918;9.438;2022-12-18T12:43:27;33.90;;;17.83;;
3704;SDS011;1868;48.918;9.438;2022-12-18T12:46:03;33.70;;;17.77;;
3704;SDS011;1868;48.918;9.438;2022-12-18T12:48:38;33.53;;;17.57;;
3704;SDS011;1868;48.918;9.438;2022-12-18T12:51:15;33.33;;;17.17;;
3704;SDS011;1868;48.918;9.438;2022-12-18T12:53:46;28.60;;;17.13;;
3704;SDS011;1868;48.918;9.438;2022-12-18T12:56:16;31.13;;;16.43;;
3704;SDS011;1868;48.918;9.438;2022-12-18T12:58:52;35.10;;;17.90;;
3704;SDS011;1868;48.918;9.438;2022-12-18T13:01:33;35.07;;;18.67;;
3704;SDS011;1868;48.918;9.438;2022-12-18T13:04:08;29.63;;;16.40;;
3704;SDS011;1868;48.918;9.438;2022-12-18T13:06:50;30.20;;;16.97;;
3704;SDS011;1868;48.918;9.438;2022-12-18T13:09:29;31.77;;;17.20;;
3704;SDS011;1868;48.918;9.438;2022-12-18T13:12:02;34.87;;;17.77;;
3704;SDS011;1868;48.918;9.438;2022-12-18T13:14:50;25.80;;;14.63;;
3704;SDS011;1868;48.918;9.438;2022-12-18T13:17:29;31.07;;;16.40;;
3704;SDS011;1868;48.918;9.438;2022-12-18T13:20:06;25.53;;;14.73;;
3704;SDS011;1868;48.918;9.438;2022-12-18T13:22:44;33.20;;;17.87;;
3704;SDS011;1868;48.918;9.438;2022-12-18T13:25:27;29.03;;;17.30;;
3704;SDS011;1868;48.918;9.438;2022-12-18T13:28:05;31.60;;;17.33;;
3704;SDS011;1868;48.918;9.438;2022-12-18T13:30:41;30.00;;;16.90;;
3704;SDS011;1868;48.918;9.438;2022-12-18T13:33:37;39.27;;;18.60;;
3704;SDS011;1868;48.918;9.438;2022-12-18T13:36:29;39.37;;;19.63;;
3704;SDS011;1868;48.918;9.438;2022-12-18T13:45:45;29.97;;;16.27;;
3704;SDS011;1868;48.918;9.438;2022-12-18T13:48:17;32.73;;;16.47;;
3704;SDS011;1868;48.918;9.438;2022-12-18T13:50:53;34.20;;;19.10;;
3704;SDS011;1868;48.918;9.438;2022-12-18T13:53:27;30.53;;;16.80;;
3704;SDS011;1868;48.918;9.438;2022-12-18T13:56:04;29.53;;;16.17;;
3704;SDS011;1868;48.918;9.438;2022-12-18T13:58:33;23.50;;;13.23;;
3704;SDS011;1868;48.918;9.438;2022-12-18T14:01:02;31.20;;;16.70;;
3704;SDS011;1868;48.918;9.438;2022-12-18T14:03:31;31.07;;;17.17;;
3704;SDS011;1868;48.918;9.438;2022-12-18T14:06:00;27.83;;;16.60;;
3704;SDS011;1868;48.918;9.438;2022-12-18T14:08:33;30.97;;;17.50;;
3704;SDS011;1868;48.918;9.438;2022-12-18T14:11:08;35.77;;;16.80;;
3704;SDS011;1868;48.918;9.438;2022-12-18T14:13:48;32.33;;;17.83;;
3704;SDS011;1868;48.918;9.438;2022-12-18T14:16:17;26.10;;;15.80;;
3704;SDS011;1868;48.918;9.438;2022-12-18T14:18:46;32.50;;;17.00;;
3704;SDS011;1868;48.918;9.438;2022-12-18T14:21:23;32.70;;;17.13;;
3704;SDS011;1868;48.918;9.438;2022-12-18T14:24:05;29.27;;;16.70;;
3704;SDS011;1868;48.918;9.438;2022-12-18T14:26:46;30.30;;;15.73;;
3704;SDS011;1868;48.918;9.438;2022-12-18T14:29:24;29.30;;;16.67;;
3704;SDS011;1868;48.918;9.438;2022-12-18T14:32:03;31.07;;;15.73;;
3704;SDS011;1868;48.918;9.438;2022-12-18T14:34:43;25.70;;;14.70;;
3704;SDS011;1868;48.918;9.438;2022-12-18T14:37:14;28.67;;;16.13;;
3704;SDS011;1868;48.918;9.438;2022-12-18T14:39:54;26.03;;;15.23;;
3704;SDS011;1868;48.918;9.438;2022-12-18T14:42:26;26.07;;;14.70;;
3704;SDS011;1868;48.918;9.438;2022-12-18T14:48:12;31.03;;;16.93;;
3704;SDS011;1868;48.918;9.438;2022-12-18T14:50:56;31.37;;;16.63;;
3704;SDS011;1868;48.918;9.438;2022-12-18T14:53:30;30.60;;;16.37;;
3704;SDS011;1868;48.918;9.438;2022-12-18T14:56:16;31.23;;;16.43;;
3704;SDS011;1868;48.918;9.438;2022-12-18T14:58:49;32.53;;;17.00;;
3704;SDS011;1868;48.918;9.438;2022-12-18T15:01:23;33.10;;;16.33;;
3704;SDS011;1868;48.918;9.438;2022-12-18T15:03:54;26.10;;;14.83;;
3704;SDS011;1868;48.918;9.438;2022-12-18T15:06:29;35.03;;;17.50;;
3704;SDS011;1868;48.918;9.438;2022-12-18T15:09:02;27.40;;;15.97;;
3704;SDS011;1868;48.918;9.438;2022-12-18T15:11:43;30.47;;;16.00;;
3704;SDS011;1868;48.918;9.438;2022-12-18T15:14:29;31.90;;;16.30;;
3704;SDS011;1868;48.918;9.438;2022-12-18T15:17:02;32.43;;;15.77;;
3704;SDS011;1868;48.918;9.438;2022-12-18T15:19:35;32.90;;;16.60;;
3704;SDS011;1868;48.918;9.438;2022-12-18T15:22:14;29.03;;;15.83;;
3704;SDS011;1868;48.918;9.438;2022-12-18T15:24:51;31.47;;;15.33;;
3704;SDS011;1868;48.918;9.438;2022-12-18T15:27:25;30.07;;;16.27;;
3704;SDS011;1868;48.918;9.438;2022-12-18T15:30:02;31.60;;;18.07;;
3704;SDS011;1868;48.918;9.438;2022-12-18T15:32:49;29.47;;;15.73;;
3704;SDS011;1868;48.918;9.438;2022-12-18T15:35:20;31.50;;;15.17;;